UATT 170300Z 04003MPS CAVOK 27/16 Q1016 NOSIG RMK QFE742/0990
QNH:(hPa/inHg/mmHg)1016 / 30 / 762
QFE:(hPa/inHg/mmHg)989 / 29.20 / 742
Temperature27
Dew Point16
Visibility> 10000
WeatherCAVOK
Cloud Cover
Transition Altitude10000 ft.
Transition LevelFL110
SQUAWK